Latest Weather Observations for Noonamah

IDD60901

Issued at 12:41 pm CST Sunday 1 March 2015 (issued every 10 minutes, with the page automatically refreshed every 10 minutes)

About weather observations | Map of Darwin area stations | Latest observations for Darwin area | Other Formats
Station Details ID: 014314 Name: NOONAMAH AIRSTRIP Lat: -12.61 Lon: 131.05 Height: 17.5 m
Data from the previous 72 hours. | See also: Recent months for locations in Northern Territory
Date/Time
CST
Tmp

°C
App
Tmp
°C
Dew
Point
°C
Rel
Hum
%
Delta-T

°C
Wind Press
QNH
hPa
Press
MSL
hPa
Rain
since
9 am
mm
Dir
 
Spd
km/h
Gust
km/h
Spd
kts
Gust
kts
01/12:30pm 32.5 38.1 26.3 70 4.5 WNW 9 17 5 9 1006.1 1005.9 0.0
01/12:00pm 31.6 37.4 26.6 75 3.6 NW 9 20 5 11 1006.5 1006.3 0.0
01/11:30am 32.2 37.8 26.3 71 4.2 WNW 9 17 5 9 1006.7 1006.5 0.0
01/11:00am 31.6 37.6 26.4 74 3.7 W 7 13 4 7 1006.9 1006.7 0.0
01/10:30am 31.0 37.4 26.7 78 3.1 WNW 6 9 3 5 1007.1 1006.9 0.0
01/10:00am 30.7 36.4 26.4 78 3.1 W 9 15 5 8 1007.1 1006.9 0.0
01/09:30am 29.9 36.0 26.5 82 2.4 W 7 11 4 6 1007.1 1006.9 0.0
01/09:00am 29.7 35.9 26.7 84 2.2 WSW 7 11 4 6 1007.1 1006.9 22.6
01/08:30am 28.6 35.0 26.6 89 1.4 WSW 6 9 3 5 1007.0 1006.8 22.6
01/08:00am 27.6 33.9 26.5 94 0.8 WSW 6 9 3 5 1006.4 1006.2 22.6
01/07:30am 26.9 33.1 26.4 97 0.4 SW 6 7 3 4 1005.9 1005.7 22.6
01/07:00am 26.3 33.1 26.1 99 0.1 WSW 2 6 1 3 1005.7 1005.5 22.6
01/06:30am 26.2 33.3 26.0 99 0.1 CALM 0 0 0 0 1005.5 1005.3 22.6
01/06:00am 26.2 32.5 25.9 98 0.2 NNW 4 4 2 2 1005.0 1004.8 22.6
01/05:30am 26.4 33.2 26.2 99 0.1 NW 2 4 1 2 1005.0 1004.8 22.6
01/05:00am 26.3 33.1 26.1 99 0.1 WNW 2 4 1 2 1004.7 1004.5 22.6
01/04:30am 26.1 32.4 25.9 99 0.1 NW 4 4 2 2 1004.6 1004.4 22.6
01/04:00am 26.1 33.1 25.8 98 0.2 CALM 0 4 0 2 1004.9 1004.7 22.6
01/03:30am 26.2 33.2 25.9 98 0.2 CALM 0 2 0 1 1005.0 1004.8 22.6
01/03:00am 26.4 33.2 26.2 99 0.1 NNW 2 2 1 1 1005.4 1005.2 22.6
01/02:30am 26.3 32.7 26.1 99 0.1 W 4 9 2 5 1005.2 1005.0 22.6
01/02:00am 26.2 32.9 26.0 99 0.1 NW 2 2 1 1 1005.9 1005.7 22.6
01/01:30am 26.2 32.5 26.0 99 0.1 W 4 6 2 3 1006.1 1005.9 22.6
01/01:00am 26.1 33.1 25.9 99 0.1 CALM 0 0 0 0 1006.2 1006.0 22.6
01/12:30am 26.0 32.6 25.8 99 0.1 W 2 4 1 2 1006.4 1006.2 22.6
01/12:00am 25.8 32.6 25.5 98 0.2 CALM 0 0 0 0 1007.3 1007.1 22.6
 
Date/Time
CST
Tmp

°C
App
Tmp
°C
Dew
Point
°C
Rel
Hum
%
Delta-T

°C
Wind Press
QNH
hPa
Press
MSL
hPa
Rain
since
9 am
mm
Dir
 
Spd
km/h
Gust
km/h
Spd
kts
Gust
kts
28/11:30pm 25.6 32.2 25.3 98 0.2 CALM 0 0 0 0 1007.7 1007.5 22.6
28/11:00pm 25.5 31.3 25.2 98 0.2 W 4 6 2 3 1007.6 1007.4 22.6
28/10:30pm 25.4 31.5 25.1 98 0.2 WNW 2 4 1 2 1007.4 1007.2 22.6
28/10:00pm 25.4 31.4 24.9 97 0.3 W 2 4 1 2 1007.3 1007.1 22.6
28/09:30pm 25.4 31.9 25.1 98 0.2 CALM 0 4 0 2 1007.3 1007.1 22.6
28/09:00pm 25.1 31.3 24.6 97 0.3 CALM 0 0 0 0 1006.2 1006.0 22.6
28/08:30pm 25.0 30.8 24.5 97 0.3 NNW 2 4 1 2 1005.4 1005.2 22.6
28/08:00pm 24.8 29.7 24.3 97 0.3 NW 6 7 3 4 1005.1 1004.9 22.4
28/07:30pm 24.8 30.1 24.3 97 0.3 WNW 4 6 2 3 1004.8 1004.6 22.4
28/07:00pm 24.7 29.8 24.0 96 0.5 NNE 4 7 2 4 1004.7 1004.5 22.4
28/06:30pm 24.8 30.1 24.3 97 0.3 E 4 9 2 5 1005.4 1005.2 22.4
28/06:00pm 24.6 29.2 24.1 97 0.3 NW 7 13 4 7 1004.9 1004.7 22.4
28/05:30pm 25.1 28.7 23.7 92 1.0 W 11 24 6 13 1005.2 1005.0 15.6
28/05:15pm 26.6 28.4 23.5 83 2.1 SW 20 33 11 18 1004.2 1004.0 1.0
28/05:00pm 31.7 35.1 25.3 69 4.5 WNW 17 26 9 14 1003.9 1003.7 0.2
28/04:30pm 32.6 36.3 25.2 65 5.3 WNW 15 26 8 14 1004.0 1003.8 0.2
28/04:00pm 32.9 36.8 24.9 63 5.6 WNW 13 20 7 11 1004.0 1003.8 0.2
28/03:30pm 32.1 37.0 26.4 72 4.1 NNW 13 19 7 10 1004.2 1004.0 0.2
28/03:00pm 30.8 35.5 25.6 74 3.7 NW 11 19 6 10 1004.4 1004.2 0.2
28/02:30pm 29.2 33.3 25.2 79 2.8 NNW 13 20 7 11 1005.2 1005.0 0.2
28/02:00pm 31.0 35.5 25.8 74 3.7 NW 13 20 7 11 1005.7 1005.5 0.0
28/01:30pm 31.9 36.7 25.7 69 4.4 NW 11 19 6 10 1005.8 1005.6 0.0
28/01:00pm 32.2 36.8 25.3 67 4.9 WNW 11 20 6 11 1006.2 1006.0 0.0
28/12:30pm 31.6 35.7 24.5 66 5.0 WNW 11 17 6 9 1006.7 1006.5 0.0
28/12:00pm 31.4 34.9 24.8 68 4.6 W 15 24 8 13 1007.2 1007.0 0.0
28/11:30am 30.7 35.5 25.1 72 4.0 W 9 15 5 8 1007.3 1007.1 0.0
28/11:00am 29.9 34.6 25.0 75 3.4 W 9 17 5 9 1007.5 1007.3 0.0
28/10:30am 29.2 34.5 25.2 79 2.8 W 7 13 4 7 1007.6 1007.4 0.0
28/10:00am 27.9 32.9 24.5 82 2.4 WSW 6 13 3 7 1007.6 1007.4 0.0
28/09:30am 27.4 32.7 24.3 83 2.2 WSW 4 7 2 4 1007.4 1007.2 0.0
28/09:00am 26.9 31.7 24.2 85 1.9 SSE 6 9 3 5 1007.4 1007.2 39.6
28/08:30am 25.7 30.6 23.7 89 1.4 SE 4 7 2 4 1006.8 1006.6 39.6
28/08:00am 24.6 29.7 23.4 93 0.8 S 2 6 1 3 1006.7 1006.5 39.6
28/07:30am 24.0 28.5 23.0 94 0.7 SW 4 7 2 4 1006.5 1006.3 39.6
28/07:00am 23.7 28.0 22.7 94 0.7 SSW 4 6 2 3 1006.5 1006.3 39.6
28/06:30am 23.8 27.1 22.6 93 0.8 WSW 9 13 5 7 1006.6 1006.4 39.6
28/06:00am 24.0 28.1 23.3 96 0.5 W 7 13 4 7 1006.3 1006.1 39.6
28/05:30am 24.0 28.1 23.3 96 0.5 WNW 7 11 4 6 1006.5 1006.3 39.6
28/05:00am 24.1 27.8 23.2 95 0.6 WNW 9 13 5 7 1006.3 1006.1 39.6
28/04:30am 24.8 30.1 24.3 97 0.3 NNW 4 6 2 3 1006.0 1005.8 39.6
28/04:00am 24.8 29.9 24.1 96 0.5 NW 4 7 2 4 1006.2 1006.0 39.6
28/03:30am 24.8 28.9 23.9 95 0.6 NNW 9 15 5 8 1006.4 1006.2 39.6
28/03:00am 24.7 29.2 23.7 94 0.7 NNW 6 9 3 5 1006.6 1006.4 39.6
28/02:30am 26.4 32.4 26.1 98 0.2 NW 6 9 3 5 1006.6 1006.4 39.6
28/02:00am 26.2 32.5 26.0 99 0.1 NNW 4 6 2 3 1006.4 1006.2 39.6
28/01:30am 26.3 32.7 26.1 99 0.1 NNW 4 6 2 3 1006.7 1006.5 39.6
28/01:00am 26.2 32.9 26.0 99 0.1 NNW 2 4 1 2 1007.1 1006.9 39.6
28/12:30am 26.2 32.9 25.9 98 0.2 N 2 4 1 2 1007.4 1007.2 39.6
28/12:00am 26.3 33.4 26.0 98 0.2 CALM 0 4 0 2 1007.4 1007.2 39.6
 
Date/Time
CST
Tmp

°C
App
Tmp
°C
Dew
Point
°C
Rel
Hum
%
Delta-T

°C
Wind Press
QNH
hPa
Press
MSL
hPa
Rain
since
9 am
mm
Dir
 
Spd
km/h
Gust
km/h
Spd
kts
Gust
kts
27/11:30pm 26.6 33.9 26.3 98 0.2 CALM 0 0 0 0 1008.3 1008.1 39.6
27/11:00pm 26.6 33.1 26.3 98 0.2 NE 4 4 2 2 1008.5 1008.3 39.6
27/10:30pm 26.6 33.9 26.3 98 0.2 CALM 0 0 0 0 1008.9 1008.7 39.4
27/10:00pm 26.4 33.2 26.1 98 0.2 ENE 2 6 1 3 1008.6 1008.4 39.2
27/09:30pm 26.4 33.6 26.1 98 0.2 CALM 0 0 0 0 1008.1 1007.9 38.8
27/09:00pm 26.3 33.4 26.0 98 0.2 CALM 0 0 0 0 1007.6 1007.4 38.0
27/08:30pm 26.2 33.2 25.9 98 0.2 CALM 0 2 0 1 1007.1 1006.9 38.0
27/08:00pm 26.1 32.7 25.8 98 0.2 NE 2 4 1 2 1006.9 1006.7 38.0
27/07:30pm 26.0 32.5 25.7 98 0.2 N 2 2 1 1 1006.5 1006.3 38.0
27/07:00pm 25.9 32.0 25.6 98 0.2 NNE 4 6 2 3 1006.0 1005.8 38.0
27/06:30pm 25.8 31.8 25.5 98 0.2 NNW 4 6 2 3 1005.3 1005.1 38.0
27/06:00pm 25.9 32.4 25.6 98 0.2 NW 2 6 1 3 1005.0 1004.8 38.0
27/05:30pm 25.5 31.7 25.2 98 0.2 NE 2 4 1 2 1004.7 1004.5 38.0
27/05:00pm 25.2 31.3 25.0 99 0.1 W 2 6 1 3 1004.4 1004.2 38.0
27/04:30pm 24.6 29.5 24.3 98 0.2 NW 6 9 3 5 1004.2 1004.0 37.6
27/04:00pm 24.6 29.9 24.4 99 0.1 ENE 4 9 2 5 1004.6 1004.4 37.4
27/03:30pm 24.0 27.2 23.7 98 0.2 N 13 19 7 10 1005.6 1005.4 35.4
27/03:00pm 24.2 24.6 23.7 97 0.3 NNW 28 43 15 23 1006.2 1006.0 21.2
27/02:52pm 24.8 26.8 23.6 93 0.8 NNW 19 43 10 23 1005.7 1005.5 10.6
27/02:30pm 30.2 35.3 24.6 72 3.9 NNW 6 15 3 8 1004.3 1004.1 0.0
27/02:00pm 32.4 36.4 25.0 65 5.2 W 13 20 7 11 1004.7 1004.5 0.0
27/01:30pm 31.6 35.7 25.2 69 4.5 W 13 20 7 11 1005.4 1005.2 0.0
27/01:00pm 30.6 34.0 25.2 73 3.8 WSW 17 24 9 13 1005.7 1005.5 0.0
27/12:30pm 32.3 37.4 25.6 67 4.8 W 9 13 5 7 1006.4 1006.2 0.0
27/12:00pm 32.3 37.4 25.6 67 4.8 W 9 13 5 7 1007.0 1006.8 0.0
27/11:30am 31.7 36.7 24.8 67 4.9 W 7 13 4 7 1007.3 1007.1 0.0
27/11:00am 31.2 37.2 26.0 74 3.7 WNW 6 9 3 5 1007.6 1007.4 0.0
27/10:30am 30.4 36.1 25.9 77 3.2 W 7 11 4 6 1007.9 1007.7 0.0
27/10:00am 30.4 35.6 25.7 76 3.3 W 9 15 5 8 1007.7 1007.5 0.0
27/09:30am 29.4 35.5 26.2 83 2.3 WSW 6 9 3 5 1007.7 1007.5 0.0
27/09:00am 28.1 34.6 26.3 90 1.3 W 4 6 2 3 1007.6 1007.4 4.6
27/08:30am 27.0 34.3 26.3 96 0.5 CALM 0 0 0 0 1007.5 1007.3 4.6
27/08:00am 26.5 33.7 26.2 98 0.2 CALM 0 0 0 0 1007.1 1006.9 4.6
27/07:30am 26.1 33.1 25.8 98 0.2 CALM 0 2 0 1 1006.7 1006.5 4.6
27/07:00am 25.9 32.4 25.6 98 0.2 NNE 2 4 1 2 1006.2 1006.0 4.6
27/06:30am 26.1 32.6 25.6 97 0.4 ENE 2 6 1 3 1005.8 1005.6 4.6
27/06:00am 26.4 32.2 25.7 96 0.5 SW 6 9 3 5 1005.5 1005.3 4.6
27/05:30am 26.3 32.1 25.8 97 0.4 SSW 6 7 3 4 1005.4 1005.2 4.6
27/05:00am 26.5 32.8 26.0 97 0.4 SW 4 6 2 3 1005.2 1005.0 4.6
27/04:30am 26.6 33.0 26.1 97 0.4 W 4 6 2 3 1005.1 1004.9 4.6
27/04:00am 26.5 32.8 26.0 97 0.4 NW 4 6 2 3 1005.0 1004.8 4.6
27/03:30am 26.5 33.3 26.2 98 0.2 WNW 2 6 1 3 1005.4 1005.2 4.4
27/03:00am 26.7 33.5 26.2 97 0.4 ENE 2 4 1 2 1005.9 1005.7 4.0
27/02:30am 26.8 33.6 26.1 96 0.5 N 2 2 1 1 1006.3 1006.1 3.6
27/02:00am 26.9 34.1 26.2 96 0.5 CALM 0 0 0 0 1006.5 1006.3 3.6
27/01:30am 26.9 34.0 26.0 95 0.6 CALM 0 0 0 0 1007.1 1006.9 3.6
27/01:00am 26.9 33.6 26.0 95 0.6 NE 2 4 1 2 1007.7 1007.5 3.6
27/12:30am 26.9 33.2 25.9 94 0.7 NNW 4 6 2 3 1007.6 1007.4 3.6
27/12:00am 27.0 33.9 26.3 96 0.5 N 2 4 1 2 1008.1 1007.9 3.6
 
Date/Time
CST
Tmp

°C
App
Tmp
°C
Dew
Point
°C
Rel
Hum
%
Delta-T

°C
Wind Press
QNH
hPa
Press
MSL
hPa
Rain
since
9 am
mm
Dir
 
Spd
km/h
Gust
km/h
Spd
kts
Gust
kts
26/11:30pm 27.1 34.3 26.2 95 0.6 CALM 0 4 0 2 1008.4 1008.2 3.6
26/11:00pm 27.1 34.1 26.4 96 0.5 WNW 2 4 1 2 1008.1 1007.9 3.6
26/10:30pm 27.3 34.7 26.4 95 0.6 CALM 0 0 0 0 1008.5 1008.3 3.6
26/10:00pm 27.2 34.4 26.1 94 0.8 CALM 0 2 0 1 1008.3 1008.1 3.6
26/09:30pm 27.1 33.0 26.2 95 0.6 NW 7 9 4 5 1006.7 1006.5 3.6
26/09:00pm 27.2 33.9 26.0 93 0.9 SSW 2 2 1 1 1007.2 1007.0 3.6
26/08:30pm 27.3 33.3 26.1 93 0.9 WSW 6 9 3 5 1006.4 1006.2 3.6
26/08:00pm 27.6 34.1 26.2 92 1.0 SW 4 6 2 3 1005.9 1005.7 3.6
26/07:30pm 27.7 34.8 26.6 94 0.8 W 2 4 1 2 1005.8 1005.6 3.6
26/07:00pm 27.6 34.8 26.7 95 0.6 W 2 2 1 1 1005.8 1005.6 3.6
26/06:30pm 27.3 33.8 26.2 94 0.8 NW 4 6 2 3 1005.4 1005.2 3.6
26/06:00pm 27.1 33.2 26.2 95 0.6 NNW 6 7 3 4 1004.9 1004.7 3.6
26/05:30pm 26.6 32.5 25.4 93 0.8 N 4 6 2 3 1004.9 1004.7 3.6
26/05:00pm 26.3 31.3 24.5 90 1.2 NW 6 7 3 4 1004.8 1004.6 3.6
26/04:30pm 26.3 31.0 23.4 84 2.0 NNW 4 6 2 3 1004.5 1004.3 3.6
26/04:00pm 25.5 28.9 23.4 88 1.4 NW 11 20 6 11 1004.6 1004.4 3.6
26/03:30pm 26.4 29.0 24.6 90 1.3 W 19 28 10 15 1004.8 1004.6 1.2
26/03:23pm 27.4 30.1 24.7 85 1.9 WSW 19 28 10 15 1004.6 1004.4 0.4
26/03:00pm 32.4 37.3 25.2 66 5.1 WNW 9 13 5 7 1004.2 1004.0 0.0
26/02:30pm 32.5 37.8 25.8 68 4.8 NW 9 17 5 9 1004.8 1004.6 0.0
26/02:00pm 31.8 36.4 25.4 69 4.5 NW 11 17 6 9 1005.3 1005.1 0.0
26/01:30pm 32.5 38.0 25.6 67 4.9 W 7 11 4 6 1005.8 1005.6 0.0
26/01:00pm 32.5 37.3 24.5 62 5.6 W 7 15 4 8 1006.4 1006.2 0.0

Latest Capital City Observations: Canberra | Sydney | Melbourne | Brisbane | Adelaide | Perth | Hobart | Darwin

Other Formats:

Comma delimited format used in spreadsheet applications
http://www.bom.gov.au/fwo/IDD60901/IDD60901.94105.axf

JavaScript Object Notation format (JSON) in row-major order
http://www.bom.gov.au/fwo/IDD60901/IDD60901.94105.json